Time;durP1;ratioP1;P1;durP2;ratioP2;P2;SDS_P1;SDS_P2;PMS_P1;PMS_P2;Temp;Humidity;BMP_temperature;BMP_pressure;BME280_temperature;BME280_humidity;BME280_pressure;Samples;Min_cycle;Max_cycle;Signal;HPM_P1;HPM_P2
2021/04/03 00:00:36;;;;;;;20.05;3.45;;;;;;;6.81;90.64;101540.09;4969662;28;20043;-74
2021/04/03 00:03:04;;;;;;;29.60;3.45;;;;;;;6.84;90.33;101536.78;4966804;28;20038;-74
2021/04/03 00:05:30;;;;;;;25.75;3.42;;;;;;;6.88;89.86;101544.97;4970242;28;20041;-74
2021/04/03 00:07:56;;;;;;;27.08;3.67;;;;;;;6.65;90.66;101546.91;4969315;28;20117;-74
2021/04/03 00:10:29;;;;;;;23.83;4.05;;;;;;;6.66;91.53;101551.16;4969985;28;20492;-74
2021/04/03 00:12:56;;;;;;;22.48;3.28;;;;;;;6.63;91.92;101546.44;4968585;28;20550;-74
2021/04/03 00:15:25;;;;;;;22.00;3.75;;;;;;;6.64;91.22;101550.69;4969261;28;20073;-75
2021/04/03 00:17:50;;;;;;;39.03;9.02;;;;;;;6.62;91.44;101552.09;4967660;28;20117;-75
2021/04/03 00:20:18;;;;;;;27.90;4.53;;;;;;;6.59;91.12;101545.47;4978815;28;20113;-75
2021/04/03 00:22:44;;;;;;;29.45;3.58;;;;;;;6.65;91.10;101546.91;4969201;28;20038;-75
2021/04/03 00:25:11;;;;;;;26.00;3.33;;;;;;;6.65;91.25;101548.78;4968821;28;20199;-75
2021/04/03 00:27:37;;;;;;;23.75;3.50;;;;;;;6.66;91.45;101537.78;4967428;28;20097;-76
2021/04/03 00:30:18;;;;;;;23.80;3.13;;;;;;;6.65;90.96;101544.25;4969851;28;20030;-75
2021/04/03 00:32:49;;;;;;;22.17;3.53;;;;;;;6.57;91.79;101544.97;4967475;28;20027;-75
2021/04/03 00:35:17;;;;;;;22.23;3.38;;;;;;;6.54;91.78;101553.63;4968245;28;20125;-74
2021/04/03 00:37:43;;;;;;;28.25;4.55;;;;;;;6.40;92.18;101558.25;4968565;28;20555;-75
2021/04/03 00:40:13;;;;;;;23.75;3.85;;;;;;;6.17;93.47;101552.09;4968639;28;20118;-75
2021/04/03 00:42:39;;;;;;;19.08;3.08;;;;;;;6.11;93.97;101547.97;4970580;28;20139;-75
2021/04/03 00:45:06;;;;;;;20.95;3.15;;;;;;;6.11;94.17;101552.50;4985600;28;20372;-76
2021/04/03 00:47:31;;;;;;;18.75;3.40;;;;;;;6.13;94.63;101561.03;4970415;28;20399;-75
2021/04/03 00:49:57;;;;;;;19.38;3.25;;;;;;;6.33;92.55;101557.84;4969043;28;20038;-76
2021/04/03 00:52:23;;;;;;;21.38;3.17;;;;;;;6.29;92.56;101556.91;4985105;28;20027;-75
2021/04/03 00:54:49;;;;;;;18.30;3.42;;;;;;;6.20;93.14;101556.84;4986208;28;20034;-76
2021/04/03 00:57:15;;;;;;;21.38;3.75;;;;;;;6.10;94.04;101570.44;4967886;28;20121;-76
2021/04/03 00:59:42;;;;;;;21.17;3.75;;;;;;;6.18;93.21;101563.56;4979845;28;20031;-75
2021/04/03 01:02:10;;;;;;;26.05;3.58;;;;;;;6.30;92.78;101556.59;4983723;28;20510;-75
2021/04/03 01:04:38;;;;;;;24.23;3.63;;;;;;;6.29;93.00;101559.59;4985761;28;20089;-75
2021/04/03 01:07:06;;;;;;;22.20;3.75;;;;;;;6.17;93.19;101554.78;4985523;28;20393;-75
2021/04/03 01:09:39;;;;;;;32.03;4.05;;;;;;;6.15;93.95;101558.84;4984688;28;20035;-75
2021/04/03 01:12:19;;;;;;;23.67;3.53;;;;;;;6.07;94.12;101548.84;4984784;28;20574;-75
2021/04/03 01:15:12;;;;;;;18.85;2.92;;;;;;;5.83;95.68;101561.66;4969929;28;20031;-75
2021/04/03 01:18:00;;;;;;;23.58;3.55;;;;;;;5.80;95.70;101557.72;4975444;28;20042;-75
2021/04/03 01:20:35;;;;;;;24.60;3.45;;;;;;;5.74;96.10;101563.44;4968782;28;20085;-75
2021/04/03 01:23:08;;;;;;;24.75;3.75;;;;;;;5.84;96.26;101557.94;4960744;28;20046;-75
2021/04/03 01:25:37;;;;;;;17.92;3.50;;;;;;;5.90;95.07;101570.09;4966259;28;20463;-74
2021/04/03 01:28:29;;;;;;;20.70;3.13;;;;;;;5.77;95.32;101560.97;4972974;28;20114;-75
2021/04/03 01:30:58;;;;;;;15.35;2.97;;;;;;;5.79;96.10;101560.69;4953675;28;20039;-75
2021/04/03 01:33:26;;;;;;;24.02;3.50;;;;;;;5.98;94.97;101569.38;4969050;28;20542;-75
2021/04/03 01:35:57;;;;;;;22.85;3.83;;;;;;;6.00;94.11;101572.56;4965034;28;20035;-75
2021/04/03 01:38:32;;;;;;;20.42;3.20;;;;;;;5.86;94.54;101569.09;4971679;28;20038;-75
2021/04/03 01:41:01;;;;;;;23.63;4.15;;;;;;;5.94;94.42;101568.41;4961267;28;20043;-75
2021/04/03 01:43:35;;;;;;;25.65;3.92;;;;;;;6.03;94.17;101571.94;4989341;28;20033;-75
2021/04/03 01:46:02;;;;;;;16.50;3.78;;;;;;;6.04;93.45;101578.88;4974280;28;20042;-75
2021/04/03 01:48:31;;;;;;;28.30;3.45;;;;;;;5.99;93.35;101584.31;4982527;28;20379;-76
2021/04/03 01:50:57;;;;;;;30.45;3.80;;;;;;;5.87;93.80;101573.34;4971768;28;20372;-76
2021/04/03 01:53:23;;;;;;;23.20;3.67;;;;;;;5.75;94.61;101575.75;4973008;28;20035;-73
2021/04/03 01:55:59;;;;;;;27.40;4.15;;;;;;;5.74;94.23;101580.28;4985947;28;20046;-76
2021/04/03 01:58:32;;;;;;;22.25;3.67;;;;;;;5.87;94.38;101582.16;4972265;28;20031;-74
2021/04/03 02:00:59;;;;;;;27.15;4.07;;;;;;;5.85;93.52;101589.69;4974792;28;20093;-76
2021/04/03 02:03:25;;;;;;;14.70;3.20;;;;;;;5.78;94.13;101591.97;4973724;28;20037;-76
2021/04/03 02:05:53;;;;;;;22.77;4.05;;;;;;;5.35;96.25;101610.16;4985621;28;20026;-76
2021/04/03 02:08:35;;;;;;;16.83;3.72;;;;;;;5.33;97.13;101604.34;4971902;28;20034;-76
2021/04/03 02:11:34;;;;;;;18.88;3.92;;;;;;;5.34;96.78;101615.81;4986608;28;20062;-73
2021/04/03 02:14:06;;;;;;;22.25;3.67;;;;;;;5.20;97.35;101607.78;4986927;28;20085;-73
2021/04/03 02:16:39;;;;;;;23.30;3.28;;;;;;;5.42;96.34;101617.78;4974148;28;20038;-75
2021/04/03 02:19:08;;;;;;;16.92;3.72;;;;;;;5.15;96.95;101615.88;4973776;28;20070;-75
2021/04/03 02:21:35;;;;;;;25.67;3.97;;;;;;;5.22;97.91;101612.81;4969874;28;20551;-73
2021/04/03 02:24:02;;;;;;;21.25;3.42;;;;;;;5.37;97.18;101608.00;4975135;28;20101;-73
2021/04/03 02:26:36;;;;;;;27.52;3.80;;;;;;;5.56;95.04;101613.22;4970959;28;20085;-73
2021/04/03 02:29:06;;;;;;;24.83;3.90;;;;;;;5.62;95.13;101604.03;4981401;28;20035;-75
2021/04/03 02:31:33;;;;;;;19.23;3.40;;;;;;;5.47;95.55;101604.34;4968557;28;20451;-75
2021/04/03 02:33:59;;;;;;;24.15;4.30;;;;;;;5.51;95.23;101597.31;4974010;28;20082;-75
2021/04/03 02:36:24;;;;;;;24.38;3.80;;;;;;;5.23;96.01;101609.84;4988756;28;20039;-75
2021/04/03 02:38:51;;;;;;;20.25;3.60;;;;;;;5.39;96.45;101615.72;4985095;28;20031;-75
2021/04/03 02:41:22;;;;;;;17.10;3.38;;;;;;;5.27;96.64;101604.72;4988797;28;20035;-75
2021/04/03 02:44:10;;;;;;;15.88;3.50;;;;;;;5.17;96.98;101611.03;4989002;28;20042;-75
2021/04/03 02:46:44;;;;;;;14.88;3.47;;;;;;;5.16;96.97;101614.81;4974415;28;20398;-75
2021/04/03 02:49:37;;;;;;;13.48;3.63;;;;;;;5.03;97.68;101609.44;4973178;28;20035;-75
2021/04/03 02:52:06;;;;;;;23.30;4.20;;;;;;;4.96;97.86;101615.16;4973478;28;20487;-75
2021/04/03 02:54:34;;;;;;;23.48;3.53;;;;;;;4.93;97.78;101625.63;4979409;28;20034;-75
2021/04/03 02:57:02;;;;;;;21.58;3.53;;;;;;;5.04;97.56;101619.81;4970962;28;20031;-76
2021/04/03 02:59:33;;;;;;;13.10;3.45;;;;;;;5.14;97.14;101634.84;4972532;28;20034;-75
2021/04/03 03:02:03;;;;;;;20.70;3.78;;;;;;;5.00;96.92;101631.34;4973048;28;20042;-76
2021/04/03 03:04:31;;;;;;;15.77;4.55;;;;;;;4.98;97.44;101626.31;4987451;28;20094;-76
2021/04/03 03:06:58;;;;;;;17.38;4.07;;;;;;;4.92;97.64;101630.16;4969527;28;20042;-75
2021/04/03 03:09:26;;;;;;;22.27;3.38;;;;;;;4.87;97.42;101642.78;4965836;28;20035;-75
2021/04/03 03:11:58;;;;;;;15.95;3.20;;;;;;;4.76;97.80;101628.84;4983713;28;20058;-75
2021/04/03 03:14:26;;;;;;;18.40;3.72;;;;;;;4.69;98.93;101631.06;4973096;28;20027;-75
2021/04/03 03:16:53;;;;;;;21.70;4.10;;;;;;;4.84;97.92;101625.47;4985911;28;20039;-75
2021/04/03 03:19:22;;;;;;;22.10;3.55;;;;;;;4.79;98.30;101633.56;4964844;28;20065;-75
2021/04/03 03:21:50;;;;;;;11.38;3.63;;;;;;;4.88;97.53;101639.06;4966141;28;20054;-75
2021/04/03 03:24:17;;;;;;;15.27;3.88;;;;;;;4.83;97.56;101634.59;4966196;28;20466;-75
2021/04/03 03:26:43;;;;;;;18.92;3.80;;;;;;;4.73;97.61;101637.41;4968912;28;20361;-75
2021/04/03 03:29:12;;;;;;;20.48;3.72;;;;;;;4.85;97.18;101640.41;4962790;28;20030;-75
2021/04/03 03:31:40;;;;;;;21.23;4.03;;;;;;;4.80;97.36;101635.16;4974463;28;20027;-75
2021/04/03 03:34:08;;;;;;;24.30;4.13;;;;;;;4.76;97.56;101647.50;4968182;28;20043;-75
2021/04/03 03:36:39;;;;;;;21.00;3.45;;;;;;;4.76;97.89;101641.38;4970283;28;20507;-74
2021/04/03 03:39:06;;;;;;;17.35;3.40;;;;;;;4.89;96.84;101644.09;4984391;28;20510;-75
2021/04/03 03:41:34;;;;;;;22.30;4.05;;;;;;;4.74;96.83;101643.53;4969920;28;20117;-76
2021/04/03 03:44:03;;;;;;;22.10;3.78;;;;;;;4.81;96.66;101647.41;4971528;28;20028;-75
2021/04/03 03:46:29;;;;;;;24.65;3.88;;;;;;;4.82;96.36;101646.31;4983104;28;20520;-75
2021/04/03 03:48:56;;;;;;;15.73;3.85;;;;;;;4.69;97.05;101644.41;4980526;28;20085;-75
2021/04/03 03:51:22;;;;;;;21.38;3.97;;;;;;;4.70;96.67;101655.88;4986046;28;20117;-75
2021/04/03 03:53:56;;;;;;;17.40;3.60;;;;;;;4.64;97.89;101663.16;4968002;28;20043;-75
2021/04/03 03:56:23;;;;;;;18.77;3.55;;;;;;;4.77;97.03;101657.09;4971751;28;20093;-75
2021/04/03 03:58:48;;;;;;;16.52;3.92;;;;;;;4.68;97.01;101656.16;4985297;28;20027;-75
2021/04/03 04:01:16;;;;;;;16.20;3.45;;;;;;;4.46;97.92;101667.41;4971573;28;20125;-75
2021/04/03 04:03:41;;;;;;;24.58;3.50;;;;;;;4.76;96.51;101668.84;4963836;28;20034;-75
2021/04/03 04:06:12;;;;;;;13.52;3.13;;;;;;;4.76;96.30;101687.53;4969289;28;20397;-75
2021/04/03 04:08:40;;;;;;;15.07;3.63;;;;;;;4.81;96.23;101683.97;4970472;28;20435;-75
2021/04/03 04:11:14;;;;;;;20.83;3.40;;;;;;;4.76;96.12;101687.53;4969950;28;20031;-75
2021/04/03 04:13:40;;;;;;;15.65;3.15;;;;;;;4.49;97.28;101690.81;4961950;28;20035;-75
2021/04/03 04:16:08;;;;;;;15.95;3.60;;;;;;;4.46;97.87;101695.94;4967314;28;20023;-75
2021/04/03 04:18:36;;;;;;;13.15;3.95;;;;;;;4.53;97.99;101693.72;4985527;28;20027;-75
2021/04/03 04:21:06;;;;;;;16.70;3.42;;;;;;;4.40;98.19;101695.22;4985617;28;20035;-75
2021/04/03 04:23:35;;;;;;;16.38;3.58;;;;;;;4.45;98.42;101684.47;4977398;28;20699;-75
2021/04/03 04:26:02;;;;;;;14.93;4.68;;;;;;;4.40;98.44;101683.75;4985501;28;20526;-75
2021/04/03 04:28:30;;;;;;;16.30;3.55;;;;;;;4.52;97.96;101694.81;4962469;28;20110;-76
2021/04/03 04:30:57;;;;;;;17.85;3.70;;;;;;;4.57;97.00;101689.38;4970807;28;20042;-75
2021/04/03 04:33:25;;;;;;;17.27;5.28;;;;;;;4.55;96.72;101692.34;4982506;28;20061;-75
2021/04/03 04:35:53;;;;;;;17.33;4.15;;;;;;;4.41;97.76;101691.47;4984562;28;20121;-75
2021/04/03 04:38:22;;;;;;;15.50;3.45;;;;;;;4.16;99.29;101696.38;4985122;28;20031;-75
2021/04/03 04:40:48;;;;;;;14.15;3.65;;;;;;;3.98;99.95;101700.56;4975310;28;20026;-74
2021/04/03 04:43:20;;;;;;;14.70;4.03;;;;;;;4.13;100.00;101697.72;4959510;28;20022;-75
2021/04/03 04:45:47;;;;;;;13.10;3.17;;;;;;;4.00;99.94;101697.63;4980786;28;20052;-76
2021/04/03 04:48:13;;;;;;;14.15;3.78;;;;;;;3.99;100.00;101696.03;4984438;28;20031;-76
2021/04/03 04:50:42;;;;;;;22.00;3.78;;;;;;;4.05;99.69;101710.88;4949170;28;20027;-76
2021/04/03 04:53:10;;;;;;;17.98;3.75;;;;;;;4.01;99.70;101713.31;4982970;28;20536;-75
2021/04/03 04:55:39;;;;;;;14.27;3.35;;;;;;;3.89;100.00;101709.47;4968586;28;20039;-75
2021/04/03 04:58:06;;;;;;;15.15;3.45;;;;;;;4.04;99.71;101715.44;4967897;28;20035;-75
2021/04/03 05:00:32;;;;;;;17.50;3.67;;;;;;;4.01;99.71;101712.50;4961441;28;20034;-75
2021/04/03 05:03:13;;;;;;;13.53;3.53;;;;;;;3.94;100.00;101717.41;4961169;28;20066;-75
2021/04/03 05:05:38;;;;;;;11.52;3.75;;;;;;;3.98;99.69;101721.09;4970661;28;20600;-75
2021/04/03 05:08:04;;;;;;;13.85;3.58;;;;;;;4.08;98.85;101728.97;4969964;28;20030;-75
2021/04/03 05:10:29;;;;;;;16.10;3.83;;;;;;;3.84;99.69;101733.50;4964971;28;20039;-75
2021/04/03 05:13:05;;;;;;;13.70;3.92;;;;;;;3.99;99.60;101730.69;4973492;28;20427;-75
2021/04/03 05:15:31;;;;;;;13.07;4.10;;;;;;;3.99;98.98;101734.13;4973971;28;20109;-75
2021/04/03 05:17:56;;;;;;;13.90;4.35;;;;;;;3.96;99.50;101737.38;4972457;28;20472;-76
2021/04/03 05:20:22;;;;;;;17.30;3.70;;;;;;;3.85;100.00;101753.75;4967406;28;20415;-75
2021/04/03 05:22:47;;;;;;;14.93;3.90;;;;;;;4.31;98.50;101752.94;4971949;28;20030;-75
2021/04/03 05:25:13;;;;;;;15.20;4.72;;;;;;;4.41;97.29;101754.69;4971664;28;20527;-75
2021/04/03 05:27:40;;;;;;;12.52;4.07;;;;;;;4.55;97.34;101761.69;4979152;28;20459;-75
2021/04/03 05:30:07;;;;;;;17.23;3.70;;;;;;;4.58;96.85;101769.13;4971750;28;20062;-76
2021/04/03 05:32:33;;;;;;;14.00;4.45;;;;;;;4.60;97.06;101771.50;4970008;28;20034;-76
2021/04/03 05:34:58;;;;;;;12.07;4.47;;;;;;;4.54;97.14;101769.97;4964997;28;20081;-75
2021/04/03 05:37:24;;;;;;;15.20;4.10;;;;;;;4.37;98.89;101781.13;4963746;28;20516;-75
2021/04/03 05:39:49;;;;;;;9.80;4.05;;;;;;;4.51;99.00;101773.19;4969704;28;20031;-75
2021/04/03 05:42:18;;;;;;;9.75;3.88;;;;;;;4.45;99.18;101782.38;4967464;28;20464;-75
2021/04/03 05:44:44;;;;;;;16.55;4.70;;;;;;;4.48;99.31;101782.59;4970101;28;20562;-75
2021/04/03 05:47:10;;;;;;;7.63;3.55;;;;;;;4.35;100.00;101787.81;4972137;28;20023;-76
2021/04/03 05:49:36;;;;;;;13.60;4.20;;;;;;;4.54;100.00;101792.13;4968598;28;20034;-74
2021/04/03 05:52:06;;;;;;;18.95;4.60;;;;;;;4.37;100.00;101786.47;4972178;28;20034;-75
2021/04/03 05:54:35;;;;;;;12.90;4.20;;;;;;;4.48;100.00;101792.44;4973686;28;20042;-75
2021/04/03 05:57:01;;;;;;;12.23;4.00;;;;;;;4.54;100.00;101797.44;4966008;28;20039;-75
2021/04/03 05:59:26;;;;;;;15.95;4.03;;;;;;;4.45;100.00;101801.03;4967185;28;20043;-75
2021/04/03 06:01:52;;;;;;;15.88;3.97;;;;;;;4.54;100.00;101799.31;4970035;28;20042;-76
2021/04/03 06:04:17;;;;;;;10.77;4.00;;;;;;;4.52;100.00;101804.13;4973808;28;20035;-75
2021/04/03 06:06:43;;;;;;;8.90;4.13;;;;;;;4.80;100.00;101811.22;4969414;28;20034;-76
2021/04/03 06:09:08;;;;;;;17.27;3.97;;;;;;;5.06;99.66;101809.00;4972751;28;20110;-75
2021/04/03 06:11:45;;;;;;;17.17;4.20;;;;;;;5.07;99.00;101816.72;4969516;28;20415;-76
2021/04/03 06:14:10;;;;;;;12.10;4.22;;;;;;;4.91;99.90;101810.03;4973163;28;20078;-75
2021/04/03 06:16:39;;;;;;;8.55;4.15;;;;;;;4.90;100.00;101820.97;4968939;28;20476;-75
2021/04/03 06:19:24;;;;;;;13.73;4.28;;;;;;;5.04;100.00;101817.31;4972642;28;20054;-76
2021/04/03 06:21:53;;;;;;;10.88;3.65;;;;;;;4.96;100.00;101825.16;4970523;28;20093;-75
2021/04/03 06:24:34;;;;;;;14.25;3.60;;;;;;;5.06;100.00;101831.16;4969049;28;20395;-75
2021/04/03 06:27:11;;;;;;;;;;;;;;;5.23;100.00;101831.44;4982422;28;20035;-75
2021/04/03 06:29:50;;;;;;;11.57;3.70;;;;;;;5.36;100.00;101827.28;4969952;28;19921;-75
2021/04/03 06:32:25;;;;;;;10.15;4.07;;;;;;;5.37;99.75;101832.31;4964209;28;20039;-76
2021/04/03 06:34:53;;;;;;;9.93;3.60;;;;;;;5.57;99.49;101835.75;4969959;28;20106;-76
2021/04/03 06:37:30;;;;;;;7.97;3.58;;;;;;;5.76;99.54;101848.00;4971676;28;20031;-75
2021/04/03 06:40:01;;;;;;;11.52;3.60;;;;;;;5.57;99.30;101844.56;4984373;28;20125;-76
2021/04/03 06:42:35;;;;;;;13.18;3.85;;;;;;;6.06;99.39;101841.34;4966530;28;20031;-76
2021/04/03 06:45:19;;;;;;;9.40;3.55;;;;;;;6.36;97.36;101846.16;4971215;28;20117;-76
2021/04/03 06:47:47;;;;;;;16.30;6.32;;;;;;;6.55;97.50;101852.19;4967505;28;20023;-75
2021/04/03 06:50:17;;;;;;;10.10;3.92;;;;;;;6.74;96.96;101847.50;4970199;28;20078;-76
2021/04/03 06:52:43;;;;;;;7.38;2.92;;;;;;;6.95;94.45;101847.91;4987080;28;20069;-75
2021/04/03 06:55:11;;;;;;;7.30;3.10;;;;;;;7.07;92.58;101856.19;4970479;28;20046;-75
2021/04/03 06:57:39;;;;;;;11.05;4.35;;;;;;;7.60;93.48;101859.00;4962386;28;20049;-75
2021/04/03 07:00:06;;;;;;;6.97;3.13;;;;;;;7.88;91.04;101853.19;4971046;28;20085;-75
2021/04/03 07:02:38;;;;;;;11.20;3.00;;;;;;;7.90;88.63;101859.03;4970819;28;20039;-75
2021/04/03 07:05:04;;;;;;;7.95;3.05;;;;;;;8.20;88.30;101860.16;4969627;28;20069;-74
2021/04/03 07:07:31;;;;;;;8.40;2.60;;;;;;;8.62;86.36;101867.59;4969896;28;20041;-75
2021/04/03 07:09:57;;;;;;;9.88;2.90;;;;;;;8.88;84.99;101865.75;4972500;28;20472;-75
2021/04/03 07:12:23;;;;;;;7.00;2.60;;;;;;;8.70;81.69;101866.84;4970120;28;20109;-74
2021/04/03 07:14:49;;;;;;;6.43;2.65;;;;;;;8.94;81.34;101869.88;4965482;28;20022;-74
2021/04/03 07:17:16;;;;;;;8.38;2.72;;;;;;;9.29;79.38;101867.25;4971165;28;20049;-75
2021/04/03 07:19:45;;;;;;;5.68;2.17;;;;;;;9.67;76.88;101873.56;4971154;28;20035;-75
2021/04/03 07:22:10;;;;;;;5.30;2.53;;;;;;;9.70;74.68;101881.00;4971846;28;20400;-74
2021/04/03 07:24:36;;;;;;;7.35;2.55;;;;;;;9.99;73.73;101873.84;4968181;28;20037;-74
2021/04/03 07:27:02;;;;;;;5.05;2.05;;;;;;;10.11;71.60;101880.47;4972052;28;20035;-76
2021/04/03 07:29:40;;;;;;;9.13;2.20;;;;;;;10.40;72.26;101875.94;4971556;28;20050;-75
2021/04/03 07:32:07;;;;;;;7.85;2.15;;;;;;;10.49;69.56;101875.94;4969039;28;20399;-75
2021/04/03 07:34:42;;;;;;;5.32;1.70;;;;;;;10.30;67.27;101876.28;4971990;28;20058;-74
2021/04/03 07:37:11;;;;;;;4.28;2.00;;;;;;;10.70;67.34;101877.53;4977632;28;20027;-75
2021/04/03 07:39:39;;;;;;;4.57;1.90;;;;;;;10.99;64.81;101875.97;4967859;28;20023;-75
2021/04/03 07:42:06;;;;;;;2.92;1.33;;;;;;;11.22;62.16;101878.03;4971750;28;20058;-74
2021/04/03 07:44:37;;;;;;;5.55;1.50;;;;;;;11.38;59.61;101879.00;4971426;28;20073;-75
2021/04/03 07:47:21;;;;;;;4.57;1.80;;;;;;;11.45;60.16;101878.47;4971837;28;20562;-74
2021/04/03 07:49:47;;;;;;;5.65;2.03;;;;;;;11.65;60.81;101885.78;4971729;28;20035;-75
2021/04/03 07:52:13;;;;;;;7.07;1.50;;;;;;;11.60;57.93;101877.88;4965319;28;20105;-75
2021/04/03 07:54:39;;;;;;;1.90;1.35;;;;;;;11.98;56.00;101878.47;4972330;28;20113;-75
2021/04/03 07:57:07;;;;;;;3.35;1.45;;;;;;;12.22;56.31;101888.56;4970129;28;20093;-73
2021/04/03 07:59:46;;;;;;;4.00;1.60;;;;;;;12.29;54.33;101888.81;4971561;28;20037;-75
2021/04/03 08:02:15;;;;;;;3.13;1.13;;;;;;;12.15;52.93;101889.13;4964889;28;20039;-75
2021/04/03 08:04:41;;;;;;;3.17;1.48;;;;;;;12.34;51.75;101897.47;4972018;28;20038;-75
2021/04/03 08:07:06;;;;;;;4.20;1.20;;;;;;;12.54;51.96;101890.41;4965169;28;20089;-75
2021/04/03 08:09:33;;;;;;;5.03;1.08;;;;;;;12.83;50.59;101908.31;4970890;28;20436;-75
2021/04/03 08:12:00;;;;;;;4.00;1.02;;;;;;;12.78;48.38;101895.00;4972035;28;20022;-75
2021/04/03 08:14:27;;;;;;;2.17;1.08;;;;;;;12.77;48.44;101890.75;4966600;28;20391;-75
2021/04/03 08:16:53;;;;;;;2.67;1.20;;;;;;;12.88;48.41;101905.38;4966633;28;20105;-75
2021/04/03 08:19:30;;;;;;;2.10;1.20;;;;;;;13.20;47.23;101904.47;4965499;28;20034;-74
2021/04/03 08:21:56;;;;;;;8.75;1.20;;;;;;;13.40;46.78;101906.22;4970906;28;20039;-75
2021/04/03 08:24:23;;;;;;;2.33;0.98;;;;;;;13.57;48.16;101905.94;4960264;28;20042;-75
2021/04/03 08:26:50;;;;;;;1.67;0.95;;;;;;;13.77;45.98;101907.66;4963738;28;20014;-75
2021/04/03 08:29:30;;;;;;;2.67;0.90;;;;;;;13.48;45.00;101919.63;4962893;28;20476;-75
2021/04/03 08:31:58;;;;;;;3.25;1.00;;;;;;;13.68;44.60;101904.34;4966094;28;20478;-75
2021/04/03 08:34:24;;;;;;;2.92;0.80;;;;;;;13.75;44.29;101912.66;4965800;28;20127;-75
2021/04/03 08:36:50;;;;;;;3.42;1.02;;;;;;;14.23;44.11;101917.81;4965391;28;20555;-75
2021/04/03 08:39:18;;;;;;;3.85;0.85;;;;;;;14.11;43.92;101923.28;4963018;28;20037;-75
2021/04/03 08:41:46;;;;;;;7.38;1.02;;;;;;;14.54;45.65;101917.06;4969676;28;20041;-77
2021/04/03 08:44:26;;;;;;;2.50;0.90;;;;;;;14.84;44.84;101920.91;4963827;28;20117;-74
2021/04/03 08:47:01;;;;;;;3.15;1.23;;;;;;;15.18;43.74;101919.34;4967324;28;20121;-75
2021/04/03 08:49:35;;;;;;;1.88;1.00;;;;;;;15.32;43.82;101925.09;4966265;28;20050;-77
2021/04/03 08:52:01;;;;;;;3.42;1.35;;;;;;;15.30;41.70;101927.38;4965564;28;20040;-76
2021/04/03 08:54:39;;;;;;;1.38;0.55;;;;;;;15.21;42.62;101930.28;4963443;28;20031;-76
2021/04/03 08:57:24;;;;;;;1.88;0.90;;;;;;;15.48;41.56;101930.50;4970389;28;20039;-76
2021/04/03 08:59:50;;;;;;;7.63;1.20;;;;;;;15.62;40.94;101926.13;4963544;28;20067;-76
2021/04/03 09:02:16;;;;;;;4.30;1.20;;;;;;;15.54;41.05;101926.38;4969825;28;20070;-75
2021/04/03 09:04:42;;;;;;;2.42;1.30;;;;;;;15.53;41.16;101931.00;4970459;28;20042;-75
2021/04/03 09:07:08;;;;;;;2.40;1.02;;;;;;;15.45;39.93;101926.56;4966300;28;20505;-75
2021/04/03 09:09:33;;;;;;;2.55;1.02;;;;;;;15.67;40.27;101923.16;4963627;28;20101;-74
2021/04/03 09:12:04;;;;;;;3.70;1.13;;;;;;;15.93;39.86;101908.91;4970969;28;20042;-76
2021/04/03 09:14:31;;;;;;;;;;;;;;;16.22;40.42;101922.66;4971650;28;20328;-75
2021/04/03 09:16:59;;;;;;;4.32;1.10;;;;;;;16.26;40.92;101918.06;4969803;28;20295;-75
2021/04/03 09:19:36;;;;;;;2.30;0.98;;;;;;;16.30;41.07;101914.63;4970724;28;20034;-75
2021/04/03 09:22:03;;;;;;;2.85;1.00;;;;;;;16.25;40.59;101923.88;4971029;28;20034;-75
2021/04/03 09:24:35;;;;;;;2.65;1.08;;;;;;;16.69;40.95;101929.69;4967603;28;20034;-75
2021/04/03 09:27:12;;;;;;;2.45;1.10;;;;;;;16.62;38.86;101922.22;4970309;28;20035;-73
2021/04/03 09:29:37;;;;;;;1.13;0.88;;;;;;;16.71;39.44;101925.44;4981992;28;20456;-75
2021/04/03 09:32:05;;;;;;;3.30;1.30;;;;;;;16.89;38.38;101931.19;4966021;28;20031;-75
2021/04/03 09:34:32;;;;;;;2.38;1.63;;;;;;;17.17;38.61;101926.13;4966735;28;20034;-75
2021/04/03 09:37:11;;;;;;;7.30;2.60;;;;;;;17.21;37.71;101929.69;4967285;28;20113;-75
2021/04/03 09:39:48;;;;;;;6.60;1.90;;;;;;;17.17;37.49;101926.94;4965076;28;20506;-75
2021/04/03 09:42:15;;;;;;;4.93;1.17;;;;;;;17.39;38.43;101908.16;4967512;28;20376;-75
2021/04/03 09:44:41;;;;;;;6.38;1.10;;;;;;;17.19;38.66;101920.34;4966017;28;20041;-75
2021/04/03 09:47:07;;;;;;;1.88;0.80;;;;;;;17.43;37.38;101917.94;4982546;28;20067;-75
2021/04/03 09:49:33;;;;;;;2.42;0.80;;;;;;;17.63;36.81;101922.13;4968521;28;20112;-75
2021/04/03 09:51:59;;;;;;;1.83;0.95;;;;;;;17.11;36.74;101916.75;4970299;28;20023;-75
2021/04/03 09:54:25;;;;;;;5.75;0.95;;;;;;;17.45;37.02;101914.84;4966817;28;20492;-75
2021/04/03 09:56:50;;;;;;;2.28;0.70;;;;;;;17.95;37.21;101925.19;4961837;28;20038;-75
2021/04/03 09:59:16;;;;;;;2.80;0.70;;;;;;;18.13;36.37;101912.53;4969488;28;20479;-75
2021/04/03 10:01:41;;;;;;;3.97;0.90;;;;;;;17.95;36.45;101912.34;4971679;28;20023;-75
2021/04/03 10:04:07;;;;;;;2.38;0.70;;;;;;;18.06;35.48;101919.88;4975707;28;20041;-75
2021/04/03 10:06:32;;;;;;;4.68;0.90;;;;;;;18.14;35.02;101908.66;4973931;28;20117;-75
2021/04/03 10:08:57;;;;;;;1.60;0.60;;;;;;;18.02;36.04;101914.38;4971689;28;20495;-75
2021/04/03 10:11:23;;;;;;;1.05;0.75;;;;;;;17.52;36.45;101920.41;4974006;28;20043;-75
2021/04/03 10:13:50;;;;;;;1.55;0.70;;;;;;;17.83;37.50;101930.91;4971943;28;20610;-74
2021/04/03 10:16:15;;;;;;;6.22;1.00;;;;;;;18.17;36.41;101928.94;4972692;28;20023;-74
2021/04/03 10:18:41;;;;;;;3.58;1.00;;;;;;;18.16;35.69;101927.34;4970783;28;20384;-75
2021/04/03 10:21:09;;;;;;;2.65;0.80;;;;;;;17.92;37.30;101926.72;4970863;28;20500;-75
2021/04/03 10:23:34;;;;;;;2.67;1.00;;;;;;;18.04;35.43;101920.22;4967638;28;20118;-74
2021/04/03 10:26:00;;;;;;;3.83;0.70;;;;;;;18.05;35.69;101919.09;4955625;28;20181;-73
2021/04/03 10:28:25;;;;;;;2.40;0.63;;;;;;;18.17;36.23;101929.72;4964465;28;20089;-75
2021/04/03 10:30:51;;;;;;;1.20;0.90;;;;;;;17.60;37.15;101930.22;4972724;28;20047;-75
2021/04/03 10:33:16;;;;;;;5.22;1.10;;;;;;;18.01;36.96;101929.94;4971814;28;20034;-75
2021/04/03 10:35:42;;;;;;;4.80;1.23;;;;;;;17.58;35.91;101938.00;4967713;28;20450;-75
2021/04/03 10:38:08;;;;;;;1.83;0.95;;;;;;;17.81;37.07;101938.66;4964559;28;20522;-74
2021/04/03 10:40:33;;;;;;;3.92;1.05;;;;;;;18.18;36.92;101920.38;4966731;28;20089;-74
2021/04/03 10:42:59;;;;;;;1.63;0.88;;;;;;;18.14;36.22;101935.16;4971722;28;20241;-75
2021/04/03 10:45:24;;;;;;;2.28;0.80;;;;;;;18.48;37.14;101936.66;4969379;28;20066;-75
2021/04/03 10:47:51;;;;;;;4.95;0.90;;;;;;;18.58;36.42;101934.00;4963160;28;20550;-74
2021/04/03 10:50:17;;;;;;;2.67;1.10;;;;;;;18.82;37.32;101933.44;4972198;28;20481;-76
2021/04/03 10:52:42;;;;;;;3.20;1.20;;;;;;;18.56;35.52;101919.19;4971927;28;20038;-76
2021/04/03 10:55:08;;;;;;;1.90;0.70;;;;;;;18.29;35.65;101928.66;4971770;28;20062;-77
2021/04/03 10:57:34;;;;;;;2.67;0.70;;;;;;;18.37;36.98;101927.59;4971841;28;20127;-76
2021/04/03 10:59:59;;;;;;;3.22;0.80;;;;;;;18.33;37.30;101932.97;4972292;28;20026;-76
2021/04/03 11:02:24;;;;;;;1.17;0.57;;;;;;;18.56;35.69;101924.66;4971167;28;20038;-73
2021/04/03 11:04:50;;;;;;;1.67;0.75;;;;;;;18.59;34.47;101929.34;4968440;28;20031;-76
2021/04/03 11:07:15;;;;;;;5.38;1.00;;;;;;;18.57;35.50;101920.75;4969617;28;20062;-75
2021/04/03 11:09:41;;;;;;;1.70;0.82;;;;;;;18.75;36.30;101927.16;4964812;28;20492;-75
2021/04/03 11:12:07;;;;;;;1.27;0.63;;;;;;;19.05;34.05;101925.00;4969822;28;20090;-75
2021/04/03 11:14:32;;;;;;;2.10;0.80;;;;;;;18.75;34.43;101922.47;4970978;28;20431;-75
2021/04/03 11:16:58;;;;;;;1.08;0.70;;;;;;;18.86;34.44;101911.63;4972257;28;20482;-75
2021/04/03 11:19:23;;;;;;;4.05;0.80;;;;;;;19.08;34.15;101918.78;4964343;28;20454;-75
2021/04/03 11:21:51;;;;;;;2.38;0.85;;;;;;;19.03;35.19;101910.94;4963975;28;20031;-76
2021/04/03 11:24:16;;;;;;;2.42;1.05;;;;;;;19.34;35.03;101909.56;4982279;28;20147;-75
2021/04/03 11:26:42;;;;;;;1.40;0.80;;;;;;;19.66;34.62;101907.78;4963624;28;20830;-75
2021/04/03 11:29:07;;;;;;;2.97;0.70;;;;;;;19.44;34.15;101908.84;4966401;28;20039;-75
2021/04/03 11:31:33;;;;;;;1.48;0.95;;;;;;;19.46;33.26;101912.78;4966698;28;20046;-74
2021/04/03 11:33:58;;;;;;;2.08;0.80;;;;;;;19.36;33.79;101907.25;4969793;28;20721;-75